createdAt,value
2023-04-21T00:01:26.141Z,6.50
2023-04-21T00:03:52.967Z,6.60
2023-04-21T00:06:22.779Z,6.60
2023-04-21T00:08:50.247Z,6.60
2023-04-21T00:11:16.999Z,6.60
2023-04-21T00:13:43.771Z,6.60
2023-04-21T00:16:10.864Z,6.50
2023-04-21T00:18:37.589Z,6.60
2023-04-21T00:21:04.446Z,6.60
2023-04-21T00:23:31.025Z,6.60
2023-04-21T00:25:57.736Z,6.50
2023-04-21T00:28:24.432Z,6.50
2023-04-21T00:30:51.228Z,6.50
2023-04-21T00:33:17.808Z,6.50
2023-04-21T00:35:44.442Z,6.50
2023-04-21T00:38:11.017Z,6.40
2023-04-21T00:40:37.656Z,6.50
2023-04-21T00:43:07.583Z,6.50
2023-04-21T00:45:34.238Z,6.50
2023-04-21T00:48:00.959Z,6.60
2023-04-21T00:50:28.783Z,6.50
2023-04-21T00:52:56.069Z,6.50
2023-04-21T00:55:22.967Z,6.30
2023-04-21T00:57:51.967Z,6.20
2023-04-21T01:00:18.811Z,6.20
2023-04-21T01:02:45.666Z,6.20
2023-04-21T01:05:12.688Z,6.20
2023-04-21T01:07:39.446Z,6.10
2023-04-21T01:10:06.875Z,6.00
2023-04-21T01:12:33.524Z,6.00
2023-04-21T01:15:00.736Z,5.90
2023-04-21T01:17:27.378Z,5.90
2023-04-21T01:19:58.019Z,5.90
2023-04-21T01:22:24.587Z,6.00
2023-04-21T01:24:51.656Z,6.00
2023-04-21T01:27:20.465Z,6.10
2023-04-21T01:29:49.517Z,6.10
2023-04-21T01:32:19.531Z,6.10
2023-04-21T01:34:46.623Z,6.00
2023-04-21T01:37:17.497Z,6.00
2023-04-21T01:39:46.675Z,5.90
2023-04-21T01:42:13.668Z,5.90
2023-04-21T01:44:40.934Z,5.90
2023-04-21T01:47:07.831Z,5.90
2023-04-21T01:49:34.479Z,5.70
2023-04-21T01:52:01.170Z,5.70
2023-04-21T01:54:27.853Z,5.60
2023-04-21T01:56:54.517Z,5.50
2023-04-21T01:59:21.797Z,5.40
2023-04-21T02:01:48.555Z,5.30
2023-04-21T02:04:15.641Z,5.30
2023-04-21T02:06:42.401Z,5.20
2023-04-21T02:09:11.543Z,5.20
2023-04-21T02:11:38.144Z,5.20
2023-04-21T02:14:04.746Z,5.20
2023-04-21T02:16:32.425Z,5.10
2023-04-21T02:18:59.870Z,5.10
2023-04-21T02:21:27.879Z,5.10
2023-04-21T02:23:54.714Z,5.10
2023-04-21T02:26:21.626Z,5.10
2023-04-21T02:28:49.551Z,5.20
2023-04-21T02:31:17.149Z,5.20
2023-04-21T02:33:43.742Z,5.20
2023-04-21T02:36:10.425Z,5.30
2023-04-21T02:38:37.090Z,5.30
2023-04-21T02:41:03.806Z,5.30
2023-04-21T02:43:30.402Z,5.30
2023-04-21T02:45:57.026Z,5.30
2023-04-21T02:48:23.643Z,5.40
2023-04-21T02:50:51.055Z,5.50
2023-04-21T02:53:17.691Z,5.50
2023-04-21T02:55:44.324Z,5.60
2023-04-21T02:58:11.061Z,5.40
2023-04-21T03:00:37.835Z,5.30
2023-04-21T03:03:04.926Z,5.30
2023-04-21T03:05:31.769Z,5.40
2023-04-21T03:07:58.356Z,5.40
2023-04-21T03:10:25.095Z,5.40
2023-04-21T03:12:51.749Z,5.40
2023-04-21T03:15:19.442Z,5.40
2023-04-21T03:17:46.087Z,5.40
2023-04-21T03:20:12.953Z,5.50
2023-04-21T03:22:39.573Z,5.60
2023-04-21T03:25:07.478Z,5.60
2023-04-21T03:27:34.966Z,5.50
2023-04-21T03:30:01.757Z,5.40
2023-04-21T03:32:28.565Z,5.30
2023-04-21T03:34:55.286Z,5.20
2023-04-21T03:37:24.063Z,5.10
2023-04-21T03:39:54.804Z,5.10
2023-04-21T03:42:21.460Z,5.10
2023-04-21T03:44:48.031Z,5.10
2023-04-21T03:47:16.618Z,5.10
2023-04-21T03:49:43.217Z,5.20
2023-04-21T03:52:09.994Z,5.20
2023-04-21T03:54:36.637Z,5.20
2023-04-21T03:57:03.264Z,5.20
2023-04-21T03:59:29.905Z,5.10
2023-04-21T04:01:56.556Z,5.10
2023-04-21T04:04:23.293Z,5.00
2023-04-21T04:06:50.091Z,5.10
2023-04-21T04:09:16.841Z,5.00
2023-04-21T04:11:43.563Z,4.90
2023-04-21T04:14:10.246Z,4.90
2023-04-21T04:16:37.339Z,4.90
2023-04-21T04:19:04.082Z,4.90
2023-04-21T04:21:32.409Z,4.90
2023-04-21T04:23:59.415Z,4.80
2023-04-21T04:26:26.437Z,4.80
2023-04-21T04:28:53.365Z,4.90
2023-04-21T04:31:19.994Z,4.90
2023-04-21T04:33:46.677Z,4.80
2023-04-21T04:36:13.652Z,4.70
2023-04-21T04:38:40.294Z,4.70
2023-04-21T04:41:08.997Z,4.70
2023-04-21T04:43:41.602Z,4.70
2023-04-21T04:46:09.480Z,4.70
2023-04-21T04:48:36.149Z,4.80
2023-04-21T04:51:02.813Z,4.90
2023-04-21T04:53:29.422Z,4.80
2023-04-21T04:55:59.388Z,4.90
2023-04-21T04:58:26.035Z,4.80
2023-04-21T05:00:52.643Z,4.90
2023-04-21T05:03:19.384Z,4.90
2023-04-21T05:05:46.319Z,4.90
2023-04-21T05:08:13.720Z,5.00
2023-04-21T05:10:41.311Z,4.90
2023-04-21T05:13:07.928Z,4.80
2023-04-21T05:15:34.535Z,4.70
2023-04-21T05:18:01.175Z,4.70
2023-04-21T05:20:27.804Z,4.70
2023-04-21T05:22:54.384Z,4.60
2023-04-21T05:25:21.101Z,4.70
2023-04-21T05:27:48.270Z,4.70
2023-04-21T05:30:14.919Z,4.70
2023-04-21T05:32:41.538Z,4.70
2023-04-21T05:35:08.404Z,4.80
2023-04-21T05:37:35.417Z,4.80
2023-04-21T05:40:02.106Z,4.90
2023-04-21T05:42:28.678Z,4.90
2023-04-21T05:44:55.340Z,5.00
2023-04-21T05:47:22.040Z,5.00
2023-04-21T05:49:53.469Z,5.00
2023-04-21T05:52:21.760Z,4.90
2023-04-21T05:54:48.550Z,4.90
2023-04-21T05:57:17.774Z,5.00
2023-04-21T05:59:44.496Z,5.10
2023-04-21T06:02:11.961Z,5.10
2023-04-21T06:04:38.919Z,5.20
2023-04-21T06:07:10.381Z,5.20
2023-04-21T06:09:36.986Z,5.20
2023-04-21T06:12:03.823Z,5.30
2023-04-21T06:14:32.770Z,5.40
2023-04-21T06:16:59.485Z,5.40
2023-04-21T06:19:26.133Z,5.40
2023-04-21T06:21:52.835Z,5.40
2023-04-21T06:24:24.992Z,5.40
2023-04-21T06:26:53.164Z,5.40
2023-04-21T06:29:20.779Z,5.50
2023-04-21T06:31:47.588Z,5.60
2023-04-21T06:34:14.558Z,5.70
2023-04-21T06:36:41.217Z,5.90
2023-04-21T06:39:07.851Z,6.00
2023-04-21T06:41:34.427Z,6.10
2023-04-21T06:44:01.178Z,6.20
2023-04-21T06:46:29.066Z,6.30
2023-04-21T06:48:55.926Z,6.20
2023-04-21T06:51:22.643Z,6.20
2023-04-21T06:53:49.962Z,6.30
2023-04-21T06:56:16.617Z,6.30
2023-04-21T06:58:43.218Z,6.20
2023-04-21T07:01:10.033Z,6.20
2023-04-21T07:03:36.786Z,6.30
2023-04-21T07:06:03.832Z,6.40
2023-04-21T07:08:30.553Z,6.40
2023-04-21T07:10:57.160Z,6.40
2023-04-21T07:13:24.916Z,6.60
2023-04-21T07:15:51.923Z,6.90
2023-04-21T07:18:18.738Z,7.30
2023-04-21T07:20:45.394Z,7.70
2023-04-21T07:23:12.045Z,7.70
2023-04-21T07:25:38.693Z,7.90
2023-04-21T07:28:05.764Z,8.50
2023-04-21T07:30:32.470Z,9.10
2023-04-21T07:32:59.236Z,9.60
2023-04-21T07:35:26.160Z,10.20
2023-04-21T07:37:52.768Z,10.40
2023-04-21T07:40:19.764Z,10.50
2023-04-21T07:42:46.531Z,10.50
2023-04-21T07:45:13.279Z,10.50
2023-04-21T07:47:40.031Z,10.50
2023-04-21T07:50:07.505Z,10.40
2023-04-21T07:52:34.282Z,10.30
2023-04-21T07:55:00.907Z,10.40
2023-04-21T07:57:27.561Z,10.40
2023-04-21T07:59:54.473Z,10.50
2023-04-21T08:02:21.295Z,10.50
2023-04-21T08:04:48.284Z,10.50
2023-04-21T08:07:17.996Z,10.40
2023-04-21T08:09:44.593Z,10.40
2023-04-21T08:12:11.202Z,10.40
2023-04-21T08:14:37.781Z,10.80
2023-04-21T08:17:04.396Z,11.10
2023-04-21T08:19:34.076Z,11.30
2023-04-21T08:22:00.702Z,11.20
2023-04-21T08:24:27.436Z,11.30
2023-04-21T08:26:54.035Z,11.20
2023-04-21T08:29:20.826Z,11.40
2023-04-21T08:31:47.524Z,11.70
2023-04-21T08:34:14.412Z,11.90
2023-04-21T08:36:42.645Z,11.80
2023-04-21T08:39:09.484Z,11.70
2023-04-21T08:41:40.098Z,11.40
2023-04-21T08:44:06.960Z,11.30
2023-04-21T08:46:34.436Z,11.20
2023-04-21T08:49:02.150Z,11.20
2023-04-21T08:51:30.072Z,11.20
2023-04-21T08:53:56.990Z,11.30
2023-04-21T08:56:25.957Z,11.40
2023-04-21T08:58:53.383Z,11.60
2023-04-21T09:01:20.153Z,11.90
2023-04-21T09:03:47.907Z,11.90
2023-04-21T09:06:15.172Z,11.80
2023-04-21T09:08:52.180Z,11.90
2023-04-21T09:11:19.866Z,12.00
2023-04-21T09:13:47.504Z,12.20
2023-04-21T09:16:23.726Z,12.20
2023-04-21T09:18:51.369Z,12.10
2023-04-21T09:21:19.818Z,12.10
2023-04-21T09:23:48.449Z,12.10
2023-04-21T09:26:16.293Z,12.20
2023-04-21T09:28:44.749Z,12.40
2023-04-21T09:31:16.837Z,13.30
2023-04-21T09:33:57.591Z,14.20
2023-04-21T09:36:29.647Z,15.70
2023-04-21T09:39:20.584Z,16.80
2023-04-21T09:41:44.876Z,17.70
2023-04-21T09:44:11.735Z,19.10
2023-04-21T09:46:40.474Z,20.60
2023-04-21T09:49:07.977Z,21.50
2023-04-21T09:54:32.372Z,22.20
2023-04-21T09:57:02.106Z,22.20
2023-04-21T09:59:40.612Z,20.80
2023-04-21T10:02:08.317Z,19.60
2023-04-21T10:04:41.442Z,18.50
2023-04-21T10:07:10.038Z,18.10
2023-04-21T10:09:58.157Z,18.70
2023-04-21T10:12:26.471Z,19.80
2023-04-21T10:14:53.739Z,20.00
2023-04-21T10:17:27.414Z,19.70
2023-04-21T10:19:59.254Z,19.60
2023-04-21T10:22:35.706Z,19.10
2023-04-21T10:25:04.205Z,19.20
2023-04-21T10:27:36.116Z,20.20
2023-04-21T10:30:22.806Z,21.60
2023-04-21T10:33:02.831Z,22.00
2023-04-21T10:35:58.876Z,22.30
2023-04-21T10:38:40.045Z,22.60
2023-04-21T10:41:27.064Z,21.70
2023-04-21T10:43:53.923Z,21.60
2023-04-21T10:46:37.830Z,20.80
2023-04-21T10:49:24.970Z,20.90
2023-04-21T10:51:58.036Z,21.30
2023-04-21T10:54:43.775Z,21.10
2023-04-21T10:57:16.293Z,20.90
2023-04-21T10:59:44.053Z,20.30
2023-04-21T11:02:15.933Z,19.60
2023-04-21T11:04:48.945Z,19.20
2023-04-21T11:07:19.305Z,19.30
2023-04-21T11:09:47.511Z,19.90
2023-04-21T11:12:16.211Z,20.90
2023-04-21T11:14:44.581Z,21.50
2023-04-21T11:17:13.481Z,23.10
2023-04-21T11:19:40.634Z,22.90
2023-04-21T11:22:07.804Z,22.90
2023-04-21T11:24:34.567Z,22.80
2023-04-21T11:27:02.089Z,22.20
2023-04-21T11:29:32.177Z,22.50
2023-04-21T11:31:59.166Z,22.70
2023-04-21T11:34:26.893Z,23.60
2023-04-21T11:36:54.064Z,23.40
2023-04-21T11:39:22.232Z,22.20
2023-04-21T11:41:51.136Z,21.30
2023-04-21T11:44:38.439Z,20.90
2023-04-21T11:47:24.575Z,20.90
2023-04-21T11:49:58.935Z,21.20
2023-04-21T11:52:29.525Z,22.20
2023-04-21T11:55:04.937Z,22.30
2023-04-21T11:57:32.953Z,23.60
2023-04-21T12:00:00.940Z,24.10
2023-04-21T12:02:29.612Z,24.20
2023-04-21T12:05:10.148Z,24.20
2023-04-21T12:07:38.707Z,22.90
2023-04-21T12:10:16.601Z,21.90
2023-04-21T12:12:44.397Z,20.60
2023-04-21T12:15:12.743Z,20.00
2023-04-21T12:17:46.990Z,20.20
2023-04-21T12:20:17.348Z,19.60
2023-04-21T12:22:44.148Z,19.10
2023-04-21T12:25:10.885Z,19.30
2023-04-21T12:27:37.628Z,19.30
2023-04-21T12:30:04.940Z,19.10
2023-04-21T12:32:31.779Z,18.70
2023-04-21T12:35:00.622Z,18.50
2023-04-21T12:37:27.360Z,19.20
2023-04-21T12:39:53.984Z,19.90
2023-04-21T12:42:20.593Z,20.00
2023-04-21T12:44:47.189Z,19.70
2023-04-21T12:47:13.875Z,19.20
2023-04-21T12:49:41.274Z,19.10
2023-04-21T12:52:09.014Z,19.90
2023-04-21T12:54:35.755Z,19.70
2023-04-21T12:57:02.625Z,19.50
2023-04-21T12:59:29.575Z,19.40
2023-04-21T13:01:56.347Z,19.30
2023-04-21T13:04:23.093Z,19.30
2023-04-21T13:06:50.119Z,19.70
2023-04-21T13:09:17.051Z,19.60
2023-04-21T13:11:43.747Z,19.00
2023-04-21T13:14:10.828Z,18.80
2023-04-21T13:16:37.537Z,18.70
2023-04-21T13:19:04.506Z,18.60
2023-04-21T13:21:32.572Z,18.60
2023-04-21T13:23:59.285Z,19.00
2023-04-21T13:26:27.013Z,18.60
2023-04-21T13:28:53.696Z,18.40
2023-04-21T13:31:20.580Z,17.90
2023-04-21T13:33:47.375Z,17.40
2023-04-21T13:36:14.095Z,17.70
2023-04-21T13:38:41.065Z,17.90
2023-04-21T13:41:08.134Z,17.80
2023-04-21T13:43:35.301Z,17.90
2023-04-21T13:46:02.210Z,18.00
2023-04-21T13:48:29.686Z,18.30
2023-04-21T13:50:56.536Z,18.40
2023-04-21T13:53:23.212Z,18.40
2023-04-21T13:55:50.182Z,18.50
2023-04-21T13:58:17.157Z,18.40
2023-04-21T14:00:44.211Z,18.10
2023-04-21T14:03:11.611Z,18.00
2023-04-21T14:05:39.013Z,17.90
2023-04-21T14:08:06.268Z,17.80
2023-04-21T14:10:33.024Z,17.80
2023-04-21T14:12:59.828Z,17.90
2023-04-21T14:15:26.896Z,18.00
2023-04-21T14:17:53.906Z,17.90
2023-04-21T14:20:20.790Z,18.10
2023-04-21T14:22:47.569Z,17.80
2023-04-21T14:25:14.274Z,17.90
2023-04-21T14:27:41.143Z,17.80
2023-04-21T14:30:08.411Z,17.60
2023-04-21T14:32:35.398Z,17.60
2023-04-21T14:35:03.719Z,17.60
2023-04-21T14:37:30.413Z,17.70
2023-04-21T14:39:57.007Z,17.80
2023-04-21T14:42:23.603Z,17.80
2023-04-21T14:44:50.251Z,17.60
2023-04-21T14:47:17.042Z,17.60
2023-04-21T14:49:43.768Z,17.60
2023-04-21T14:52:10.729Z,17.80
2023-04-21T14:54:37.334Z,18.00
2023-04-21T14:57:19.136Z,18.00
2023-04-21T14:59:49.341Z,17.80
2023-04-21T15:02:16.518Z,17.70
2023-04-21T15:04:43.469Z,17.50
2023-04-21T15:07:10.197Z,17.40
2023-04-21T15:09:37.275Z,17.30
2023-04-21T15:12:04.623Z,17.30
2023-04-21T15:14:31.399Z,17.30
2023-04-21T15:16:58.015Z,17.30
2023-04-21T15:19:25.681Z,17.40
2023-04-21T15:21:52.685Z,17.40
2023-04-21T15:24:19.424Z,17.40
2023-04-21T15:26:46.025Z,17.40
2023-04-21T15:29:12.746Z,17.40
2023-04-21T15:31:40.158Z,17.20
2023-04-21T15:34:06.891Z,17.20
2023-04-21T15:36:33.793Z,17.20
2023-04-21T15:39:00.491Z,17.20
2023-04-21T15:41:29.462Z,17.20
2023-04-21T15:43:56.286Z,17.20
2023-04-21T15:46:23.309Z,17.20
2023-04-21T15:48:50.201Z,17.20
2023-04-21T15:51:18.803Z,17.20
2023-04-21T15:53:48.142Z,17.00
2023-04-21T15:56:15.800Z,17.00
2023-04-21T15:58:42.807Z,16.80
2023-04-21T16:01:09.905Z,16.80
2023-04-21T16:03:37.300Z,16.80
2023-04-21T16:06:04.333Z,16.80
2023-04-21T16:08:33.008Z,16.90
2023-04-21T16:11:00.366Z,16.90
2023-04-21T16:13:27.309Z,16.90
2023-04-21T16:15:54.032Z,16.90
2023-04-21T16:18:20.910Z,16.80
2023-04-21T16:20:47.810Z,16.80
2023-04-21T16:23:15.191Z,16.80
2023-04-21T16:25:42.281Z,16.70
2023-04-21T16:28:09.734Z,16.70
2023-04-21T16:30:38.376Z,16.70
2023-04-21T16:33:05.135Z,16.70
2023-04-21T16:35:32.245Z,16.70
2023-04-21T16:37:59.130Z,16.70
2023-04-21T16:40:26.876Z,16.70
2023-04-21T16:42:53.585Z,16.70
2023-04-21T16:45:20.251Z,16.70
2023-04-21T16:47:46.990Z,16.70
2023-04-21T16:50:13.860Z,16.70
2023-04-21T16:52:40.860Z,16.70
2023-04-21T16:55:08.139Z,16.60
2023-04-21T16:57:35.150Z,16.60
2023-04-21T17:00:06.616Z,16.60
2023-04-21T17:02:35.453Z,16.60
2023-04-21T17:05:02.413Z,16.60
2023-04-21T17:07:29.293Z,16.60
2023-04-21T17:09:55.978Z,16.60
2023-04-21T17:12:22.796Z,16.60
2023-04-21T17:14:49.585Z,16.50
2023-04-21T17:17:16.688Z,16.50
2023-04-21T17:19:43.339Z,16.40
2023-04-21T17:22:10.109Z,16.40
2023-04-21T17:24:51.811Z,16.30
2023-04-21T17:27:19.691Z,16.20
2023-04-21T17:29:46.782Z,16.10
2023-04-21T17:32:14.226Z,16.00
2023-04-21T17:34:40.934Z,15.90
2023-04-21T17:37:07.573Z,15.80
2023-04-21T17:39:34.281Z,15.70
2023-04-21T17:42:02.401Z,15.70
2023-04-21T17:44:29.176Z,15.60
2023-04-21T17:46:55.955Z,15.60
2023-04-21T17:49:24.669Z,15.50
2023-04-21T17:51:51.508Z,15.50
2023-04-21T17:54:18.114Z,15.50
2023-04-21T17:56:48.163Z,15.40
2023-04-21T17:59:14.771Z,15.40
2023-04-21T18:01:41.437Z,15.40
2023-04-21T18:04:08.597Z,15.40
2023-04-21T18:06:35.898Z,15.40
2023-04-21T18:09:04.377Z,15.30
2023-04-21T18:11:31.137Z,15.20
2023-04-21T18:13:57.788Z,15.20
2023-04-21T18:16:25.468Z,15.10
2023-04-21T18:18:52.150Z,15.10
2023-04-21T18:21:18.880Z,15.10
2023-04-21T18:23:45.564Z,15.10
2023-04-21T18:26:12.198Z,15.10
2023-04-21T18:28:38.827Z,15.00
2023-04-21T18:31:05.605Z,15.00
2023-04-21T18:33:32.245Z,15.00
2023-04-21T18:36:00.544Z,14.90
2023-04-21T18:38:27.190Z,15.00
2023-04-21T18:40:53.803Z,14.90
2023-04-21T18:43:21.219Z,14.90
2023-04-21T18:45:47.799Z,14.90
2023-04-21T18:48:14.509Z,14.80
2023-04-21T18:50:41.397Z,14.30
2023-04-21T18:53:08.915Z,13.50
2023-04-21T18:55:36.440Z,12.80
2023-04-21T18:58:03.729Z,12.40
2023-04-21T19:00:31.840Z,12.10
2023-04-21T19:03:02.237Z,11.90
2023-04-21T19:05:31.645Z,11.70
2023-04-21T19:07:58.678Z,11.60
2023-04-21T19:10:25.997Z,11.50
2023-04-21T19:12:52.681Z,11.40
2023-04-21T19:15:20.966Z,11.20
2023-04-21T19:17:47.611Z,11.20
2023-04-21T19:20:14.358Z,11.00
2023-04-21T19:22:41.968Z,10.90
2023-04-21T19:25:09.079Z,10.90
2023-04-21T19:27:36.208Z,10.80
2023-04-21T19:30:03.400Z,10.80
2023-04-21T19:32:30.599Z,10.70
2023-04-21T19:34:57.464Z,10.60
2023-04-21T19:37:25.687Z,10.50
2023-04-21T19:39:52.300Z,10.50
2023-04-21T19:42:18.872Z,10.50
2023-04-21T19:44:45.561Z,10.40
2023-04-21T19:47:12.402Z,10.30
2023-04-21T19:49:40.147Z,10.20
2023-04-21T19:52:07.763Z,10.20
2023-04-21T19:54:34.459Z,10.20
2023-04-21T19:57:01.714Z,10.10
2023-04-21T19:59:29.535Z,10.10
2023-04-21T20:01:56.659Z,10.10
2023-04-21T20:04:23.866Z,10.10
2023-04-21T20:06:50.778Z,10.00
2023-04-21T20:09:17.404Z,10.00
2023-04-21T20:11:44.859Z,9.90
2023-04-21T20:14:11.544Z,9.80
2023-04-21T20:16:38.689Z,9.80
2023-04-21T20:19:05.550Z,9.70
2023-04-21T20:21:33.170Z,9.60
2023-04-21T20:23:59.984Z,9.50
2023-04-21T20:26:26.882Z,9.50
2023-04-21T20:28:54.942Z,9.40
2023-04-21T20:31:23.717Z,9.40
2023-04-21T20:33:51.145Z,9.30
2023-04-21T20:36:18.270Z,9.20
2023-04-21T20:38:49.636Z,9.10
2023-04-21T20:41:16.361Z,9.10
2023-04-21T20:43:43.745Z,9.10
2023-04-21T20:46:10.489Z,8.90
2023-04-21T20:48:37.308Z,8.90
2023-04-21T20:51:04.026Z,8.80
2023-04-21T20:53:30.900Z,8.70
2023-04-21T20:55:57.509Z,8.70
2023-04-21T20:58:24.823Z,8.60
2023-04-21T21:00:51.553Z,8.60
2023-04-21T21:03:20.200Z,8.50
2023-04-21T21:05:47.616Z,8.50
2023-04-21T21:08:15.074Z,8.40
2023-04-21T21:10:41.930Z,8.30
2023-04-21T21:13:08.579Z,8.30
2023-04-21T21:15:35.663Z,8.20
2023-04-21T21:18:02.595Z,8.10
2023-04-21T21:20:29.324Z,8.00
2023-04-21T21:22:56.085Z,7.90
2023-04-21T21:25:22.732Z,7.80
2023-04-21T21:27:49.611Z,7.80
2023-04-21T21:30:16.289Z,7.80
2023-04-21T21:32:43.013Z,7.80
2023-04-21T21:35:10.341Z,7.60
2023-04-21T21:37:37.647Z,7.60
2023-04-21T21:40:06.081Z,7.50
2023-04-21T21:42:32.741Z,7.50
2023-04-21T21:44:59.486Z,7.50
2023-04-21T21:47:26.130Z,7.50
2023-04-21T21:49:54.856Z,7.50
2023-04-21T21:52:21.984Z,7.40
2023-04-21T21:54:48.581Z,7.40
2023-04-21T21:57:15.239Z,7.40
2023-04-21T21:59:42.151Z,7.40
2023-04-21T22:02:08.874Z,7.40
2023-04-21T22:04:35.826Z,7.30
2023-04-21T22:07:03.641Z,7.30
2023-04-21T22:09:30.839Z,7.30
2023-04-21T22:11:57.466Z,7.20
2023-04-21T22:14:24.368Z,7.20
2023-04-21T22:16:53.030Z,7.20
2023-04-21T22:19:20.431Z,7.20
2023-04-21T22:21:47.218Z,7.20
2023-04-21T22:24:14.361Z,7.20
2023-04-21T22:26:41.105Z,7.20
2023-04-21T22:29:07.724Z,7.10
2023-04-21T22:31:34.505Z,7.10
2023-04-21T22:34:01.464Z,7.20
2023-04-21T22:36:28.136Z,7.20
2023-04-21T22:38:54.734Z,7.20
2023-04-21T22:41:21.520Z,7.20
2023-04-21T22:43:48.253Z,7.20
2023-04-21T22:46:15.257Z,7.10
2023-04-21T22:48:42.133Z,7.10
2023-04-21T22:51:08.781Z,7.00
2023-04-21T22:53:35.514Z,7.00
2023-04-21T22:56:02.250Z,7.00
2023-04-21T22:58:28.979Z,7.00
2023-04-21T23:00:55.686Z,7.10
2023-04-21T23:03:23.176Z,7.20
2023-04-21T23:05:50.025Z,7.20
2023-04-21T23:08:16.616Z,7.30
2023-04-21T23:10:43.314Z,7.30
2023-04-21T23:13:10.025Z,7.30
2023-04-21T23:15:36.717Z,7.20
2023-04-21T23:18:03.655Z,7.20
2023-04-21T23:20:31.038Z,7.20
2023-04-21T23:22:57.952Z,7.30
2023-04-21T23:25:24.547Z,7.30
2023-04-21T23:27:51.240Z,7.30
2023-04-21T23:30:17.994Z,7.30
2023-04-21T23:32:45.262Z,7.30
2023-04-21T23:35:12.086Z,7.30
2023-04-21T23:37:38.753Z,7.30
2023-04-21T23:40:09.037Z,7.20
2023-04-21T23:42:36.196Z,7.20
2023-04-21T23:45:03.661Z,7.20
2023-04-21T23:47:30.729Z,7.20
2023-04-21T23:49:57.534Z,7.20
2023-04-21T23:52:24.173Z,7.20
2023-04-21T23:54:50.766Z,7.20
2023-04-21T23:57:17.513Z,7.10
2023-04-21T23:59:44.385Z,7.10
